North Hadley, Massachusetts
Current Conditions -  °F | °C
As of 2:58 AM on Friday 19 Dec 2014 (Local Time) from KCEF Reporting Station
Overcast Overcast  
Wind Chill: 27°   Ceiling: 3500
Heat Index: 34°   Visibility: 10mi
Dew Point: 24°   Wind: 8mph
Humidity: 67%   Direction: 300°WNW
Pressure: 29.9"   Gusts: NA
Location:  42.3561°N, 72.5677°W
Report Text: KCEF 190758Z AUTO 30007KT 10SM OVC035 01/M04 A2990 RMK AO2 SLP133 T00111045
Loading
Personal Weather Stations






























Interactive Weather Map New forecast layout! Learn more

10-Day Weather Forecast

Advertisements
Track Severe Weather on mobile